createdAt,value
2022-11-19T00:01:32.943Z,4.57
2022-11-19T00:04:00.487Z,4.20
2022-11-19T00:06:29.355Z,4.87
2022-11-19T00:08:56.836Z,5.20
2022-11-19T00:11:39.743Z,4.80
2022-11-19T00:14:07.976Z,5.10
2022-11-19T00:16:35.878Z,4.60
2022-11-19T00:19:03.452Z,4.60
2022-11-19T00:21:32.460Z,4.83
2022-11-19T00:24:00.282Z,5.00
2022-11-19T00:26:27.950Z,5.10
2022-11-19T00:28:56.151Z,5.20
2022-11-19T00:31:23.921Z,5.20
2022-11-19T00:33:53.973Z,5.37
2022-11-19T00:36:22.364Z,5.47
2022-11-19T00:38:51.679Z,5.17
2022-11-19T00:41:19.424Z,5.50
2022-11-19T00:43:50.027Z,6.53
2022-11-19T00:46:19.749Z,5.80
2022-11-19T00:48:48.488Z,6.70
2022-11-19T00:51:17.921Z,6.73
2022-11-19T00:53:45.538Z,6.80
2022-11-19T00:56:15.844Z,6.90
2022-11-19T00:58:44.278Z,6.67
2022-11-19T01:01:13.346Z,7.77
2022-11-19T01:03:41.965Z,7.37
2022-11-19T01:06:14.190Z,6.63
2022-11-19T01:08:43.950Z,7.33
2022-11-19T01:11:33.794Z,6.57
2022-11-19T01:14:02.151Z,7.00
2022-11-19T01:16:31.452Z,6.50
2022-11-19T01:18:59.594Z,6.67
2022-11-19T01:21:29.461Z,6.57
2022-11-19T01:23:57.746Z,6.83
2022-11-19T01:26:25.844Z,7.10
2022-11-19T01:28:55.235Z,7.17
2022-11-19T01:31:25.265Z,8.80
2022-11-19T01:33:53.381Z,7.73
2022-11-19T01:36:22.719Z,7.80
2022-11-19T01:38:51.762Z,8.63
2022-11-19T01:41:20.116Z,8.37
2022-11-19T01:43:49.939Z,8.90
2022-11-19T01:46:20.669Z,8.60
2022-11-19T01:48:52.201Z,9.57
2022-11-19T01:51:25.768Z,9.47
2022-11-19T01:53:56.277Z,9.67
2022-11-19T01:56:24.764Z,9.27
2022-11-19T01:58:58.774Z,9.77
2022-11-19T02:01:29.293Z,9.87
2022-11-19T02:04:00.521Z,10.33
2022-11-19T02:06:28.639Z,9.87
2022-11-19T02:08:56.222Z,9.80
2022-11-19T02:11:52.899Z,9.90
2022-11-19T02:14:33.344Z,10.17
2022-11-19T02:17:10.517Z,10.33
2022-11-19T02:20:08.401Z,9.90
2022-11-19T02:23:00.865Z,10.07
2022-11-19T02:25:46.624Z,10.40
2022-11-19T02:28:29.899Z,9.90
2022-11-19T02:31:07.556Z,10.23
2022-11-19T02:33:42.997Z,10.27
2022-11-19T02:36:19.148Z,10.93
2022-11-19T02:38:51.680Z,12.43
2022-11-19T02:41:37.098Z,12.00
2022-11-19T02:44:31.816Z,11.10
2022-11-19T02:47:04.003Z,10.70
2022-11-19T02:49:35.080Z,12.40
2022-11-19T02:52:04.081Z,12.07
2022-11-19T02:54:31.801Z,13.07
2022-11-19T02:56:59.693Z,12.27
2022-11-19T02:59:50.323Z,12.20
2022-11-19T03:02:38.396Z,12.30
2022-11-19T03:05:09.961Z,11.90
2022-11-19T03:07:38.509Z,13.97
2022-11-19T03:10:10.257Z,13.37
2022-11-19T03:12:48.281Z,14.13
2022-11-19T03:15:44.316Z,13.10
2022-11-19T03:18:19.876Z,12.37
2022-11-19T03:20:52.659Z,12.00
2022-11-19T03:23:25.002Z,12.73
2022-11-19T03:25:57.858Z,12.10
2022-11-19T03:28:31.210Z,12.93
2022-11-19T03:31:00.706Z,13.10
2022-11-19T03:33:33.358Z,14.07
2022-11-19T03:36:06.301Z,14.10
2022-11-19T03:38:37.509Z,13.97
2022-11-19T03:41:07.337Z,14.80
2022-11-19T03:43:39.373Z,12.50
2022-11-19T03:46:11.034Z,12.47
2022-11-19T03:48:42.010Z,12.43
2022-11-19T03:51:14.364Z,13.00
2022-11-19T03:53:42.011Z,12.87
2022-11-19T03:56:13.140Z,13.57
2022-11-19T03:58:42.914Z,13.43
2022-11-19T04:01:11.150Z,12.60
2022-11-19T04:03:40.586Z,12.87
2022-11-19T04:06:08.339Z,12.37
2022-11-19T04:08:35.981Z,12.77
2022-11-19T04:13:29.962Z,11.30
2022-11-19T04:15:57.505Z,12.03
2022-11-19T04:18:25.072Z,11.93
2022-11-19T04:20:53.947Z,11.33
2022-11-19T04:23:21.529Z,10.73
2022-11-19T04:25:49.084Z,11.57
2022-11-19T04:28:16.666Z,9.87
2022-11-19T04:30:44.240Z,11.03
2022-11-19T04:33:11.753Z,10.83
2022-11-19T04:35:39.272Z,11.30
2022-11-19T04:38:08.146Z,9.80
2022-11-19T04:40:35.666Z,10.60
2022-11-19T04:43:03.310Z,10.87
2022-11-19T04:45:30.805Z,11.10
2022-11-19T04:47:58.399Z,10.20
2022-11-19T04:50:25.971Z,11.20
2022-11-19T04:52:53.527Z,10.73
2022-11-19T04:55:22.405Z,11.27
2022-11-19T04:57:51.835Z,10.20
2022-11-19T05:00:19.854Z,9.87
2022-11-19T05:02:47.407Z,10.30
2022-11-19T05:05:15.082Z,10.53
2022-11-19T05:07:42.808Z,10.10
2022-11-19T05:10:11.013Z,9.47
2022-11-19T05:12:39.923Z,10.10
2022-11-19T05:15:08.478Z,9.30
2022-11-19T05:17:36.117Z,9.23
2022-11-19T05:20:03.983Z,8.10
2022-11-19T05:22:32.137Z,7.70
2022-11-19T05:24:59.741Z,7.97
2022-11-19T05:27:27.291Z,7.13
2022-11-19T05:29:56.452Z,7.70
2022-11-19T05:32:23.966Z,7.27
2022-11-19T05:34:51.520Z,7.63
2022-11-19T05:37:19.058Z,8.40
2022-11-19T05:39:46.584Z,8.17
2022-11-19T05:42:14.114Z,7.53
2022-11-19T05:44:41.711Z,7.30
2022-11-19T05:47:10.563Z,7.87
2022-11-19T05:49:38.136Z,7.13
2022-11-19T05:52:05.909Z,6.90
2022-11-19T05:54:33.548Z,6.83
2022-11-19T05:57:01.279Z,5.93
2022-11-19T05:59:28.778Z,7.10
2022-11-19T06:01:56.356Z,6.50
2022-11-19T06:04:25.255Z,6.50
2022-11-19T06:06:52.782Z,7.07
2022-11-19T06:09:20.460Z,6.57
2022-11-19T06:11:51.138Z,6.87
2022-11-19T06:14:21.939Z,6.00
2022-11-19T06:16:50.124Z,5.97
2022-11-19T06:19:18.047Z,6.07
2022-11-19T06:21:48.010Z,6.57
2022-11-19T06:24:15.922Z,6.47
2022-11-19T06:26:43.881Z,6.27
2022-11-19T06:29:13.651Z,5.10
2022-11-19T06:31:41.437Z,6.20
2022-11-19T06:34:09.100Z,5.70
2022-11-19T06:36:41.203Z,5.67
2022-11-19T06:39:12.839Z,5.93
2022-11-19T06:41:40.488Z,6.03
2022-11-19T06:44:07.970Z,6.83
2022-11-19T06:46:35.736Z,6.13
2022-11-19T06:49:05.610Z,6.07
2022-11-19T06:51:33.235Z,6.53
2022-11-19T06:54:00.973Z,6.03
2022-11-19T06:56:29.855Z,7.13
2022-11-19T06:58:58.439Z,6.70
2022-11-19T07:01:26.038Z,6.13
2022-11-19T07:03:53.623Z,6.37
2022-11-19T07:06:21.265Z,6.87
2022-11-19T07:08:49.069Z,7.37
2022-11-19T07:11:29.091Z,6.77
2022-11-19T07:13:59.422Z,6.80
2022-11-19T07:16:29.185Z,6.10
2022-11-19T07:18:59.083Z,6.40
2022-11-19T07:21:27.193Z,6.27
2022-11-19T07:23:55.152Z,6.00
2022-11-19T07:26:22.840Z,6.40
2022-11-19T07:28:50.659Z,5.97
2022-11-19T07:31:19.881Z,6.47
2022-11-19T07:33:47.525Z,6.70
2022-11-19T07:36:18.444Z,6.27
2022-11-19T07:38:46.943Z,5.97
2022-11-19T07:41:28.931Z,6.93
2022-11-19T07:43:56.518Z,6.17
2022-11-19T07:46:25.597Z,8.60
2022-11-19T07:48:55.112Z,8.33
2022-11-19T07:51:23.830Z,7.47
2022-11-19T07:53:52.725Z,9.83
2022-11-19T07:56:21.478Z,8.83
2022-11-19T07:58:49.069Z,9.57
2022-11-19T08:01:19.701Z,8.53
2022-11-19T08:03:54.914Z,8.87
2022-11-19T08:06:25.916Z,9.67
2022-11-19T08:08:54.854Z,10.30
2022-11-19T08:11:22.637Z,10.33
2022-11-19T08:13:50.198Z,9.47
2022-11-19T08:16:38.544Z,9.40
2022-11-19T08:19:09.491Z,9.93
2022-11-19T08:21:37.895Z,11.60
2022-11-19T08:24:05.832Z,12.27
2022-11-19T08:26:33.558Z,10.47
2022-11-19T08:29:01.118Z,11.10
2022-11-19T08:31:29.012Z,12.53
2022-11-19T08:33:56.772Z,11.93
2022-11-19T08:36:25.664Z,12.87
2022-11-19T08:38:53.325Z,13.43
2022-11-19T08:41:38.680Z,15.53
2022-11-19T08:44:06.541Z,11.33
2022-11-19T08:46:34.045Z,11.50
2022-11-19T08:49:01.692Z,12.70
2022-11-19T08:51:30.566Z,13.67
2022-11-19T08:53:58.079Z,11.20
2022-11-19T08:56:25.721Z,10.77
2022-11-19T08:58:58.477Z,10.60
2022-11-19T09:01:28.889Z,11.77
2022-11-19T09:03:56.476Z,12.37
2022-11-19T09:06:24.176Z,10.83
2022-11-19T09:08:53.098Z,11.57
2022-11-19T09:11:21.947Z,12.53
2022-11-19T09:13:49.941Z,13.03
2022-11-19T09:16:17.596Z,13.50
2022-11-19T09:18:45.200Z,13.30
2022-11-19T09:21:13.144Z,11.77
2022-11-19T09:23:41.368Z,12.80
2022-11-19T09:26:13.623Z,12.77
2022-11-19T09:28:41.783Z,12.83
2022-11-19T09:31:11.841Z,13.43
2022-11-19T09:33:42.952Z,13.33
2022-11-19T09:36:11.570Z,12.30
2022-11-19T09:38:40.803Z,13.03
2022-11-19T09:41:43.709Z,14.03
2022-11-19T09:44:25.743Z,12.77
2022-11-19T09:47:01.497Z,11.43
2022-11-19T09:49:35.108Z,12.77
2022-11-19T09:52:07.456Z,11.40
2022-11-19T09:54:35.851Z,11.73
2022-11-19T09:57:14.754Z,12.43
2022-11-19T09:59:42.844Z,12.50
2022-11-19T10:02:18.024Z,12.70
2022-11-19T10:04:46.412Z,12.83
2022-11-19T10:07:21.725Z,12.87
2022-11-19T10:10:09.142Z,12.00
2022-11-19T10:12:57.130Z,13.37
2022-11-19T10:15:37.167Z,12.57
2022-11-19T10:18:14.398Z,12.07
2022-11-19T10:21:00.398Z,13.13
2022-11-19T10:23:38.982Z,12.00
2022-11-19T10:26:13.843Z,12.03
2022-11-19T10:28:50.306Z,13.07
2022-11-19T10:31:23.461Z,12.93
2022-11-19T10:33:55.670Z,12.83
2022-11-19T10:36:27.282Z,11.07
2022-11-19T10:39:00.919Z,11.23
2022-11-19T10:41:34.862Z,12.53
2022-11-19T10:44:37.150Z,12.73
2022-11-19T10:47:06.281Z,14.00
2022-11-19T10:49:39.280Z,12.40
2022-11-19T10:52:11.538Z,12.60
2022-11-19T10:54:40.851Z,11.93
2022-11-19T10:57:17.043Z,12.07
2022-11-19T10:59:47.421Z,15.13
2022-11-19T11:02:27.713Z,12.80
2022-11-19T11:05:13.480Z,12.77
2022-11-19T11:07:52.254Z,11.90
2022-11-19T11:10:38.607Z,12.60
2022-11-19T11:13:27.094Z,10.10
2022-11-19T11:15:56.034Z,12.03
2022-11-19T11:18:27.930Z,11.37
2022-11-19T11:20:57.164Z,11.10
2022-11-19T11:23:27.173Z,11.47
2022-11-19T11:26:06.577Z,9.70
2022-11-19T11:28:35.311Z,10.50
2022-11-19T11:31:06.811Z,12.23
2022-11-19T11:33:38.430Z,11.23
2022-11-19T11:36:08.162Z,11.40
2022-11-19T11:38:42.302Z,10.90
2022-11-19T11:42:01.914Z,11.40
2022-11-19T11:44:04.056Z,11.33
2022-11-19T11:46:38.739Z,10.80
2022-11-19T11:49:12.908Z,11.17
2022-11-19T11:51:40.780Z,11.03
2022-11-19T11:54:18.286Z,12.07
2022-11-19T11:56:47.019Z,13.77
2022-11-19T11:59:21.847Z,13.53
2022-11-19T12:01:56.340Z,12.03
2022-11-19T12:04:24.698Z,10.77
2022-11-19T12:07:07.395Z,11.90
2022-11-19T12:09:44.846Z,10.10
2022-11-19T12:12:28.270Z,9.93
2022-11-19T12:15:01.018Z,10.53
2022-11-19T12:17:43.436Z,11.37
2022-11-19T12:20:28.088Z,10.27
2022-11-19T12:23:21.194Z,10.23
2022-11-19T12:25:59.236Z,10.77
2022-11-19T12:28:53.047Z,11.80
2022-11-19T12:31:38.579Z,11.17
2022-11-19T12:34:26.793Z,10.63
2022-11-19T12:37:05.399Z,10.67
2022-11-19T12:39:46.165Z,10.17
2022-11-19T12:42:32.315Z,9.67
2022-11-19T12:45:07.027Z,9.47
2022-11-19T12:47:51.495Z,10.60
2022-11-19T12:50:27.638Z,10.77
2022-11-19T12:53:12.371Z,9.77
2022-11-19T12:55:50.828Z,10.77
2022-11-19T12:58:27.154Z,10.57
2022-11-19T13:01:00.500Z,10.03
2022-11-19T13:03:48.362Z,11.77
2022-11-19T13:06:23.693Z,10.93
2022-11-19T13:08:55.011Z,11.13
2022-11-19T13:11:26.693Z,10.20
2022-11-19T13:13:59.026Z,11.07
2022-11-19T13:16:29.656Z,10.13
2022-11-19T13:19:08.416Z,8.60
2022-11-19T13:21:44.344Z,9.57
2022-11-19T13:24:25.235Z,9.60
2022-11-19T13:26:55.055Z,9.17
2022-11-19T13:29:34.595Z,9.70
2022-11-19T13:32:07.569Z,8.73
2022-11-19T13:34:41.904Z,10.07
2022-11-19T13:37:17.578Z,8.37
2022-11-19T13:39:50.043Z,9.23
2022-11-19T13:42:39.157Z,9.40
2022-11-19T13:45:07.628Z,10.87
2022-11-19T13:47:46.418Z,10.17
2022-11-19T13:50:19.351Z,9.57
2022-11-19T13:52:58.480Z,10.03
2022-11-19T13:55:36.325Z,9.77
2022-11-19T13:58:12.318Z,9.23
2022-11-19T14:00:40.323Z,8.93
2022-11-19T14:03:34.464Z,8.87
2022-11-19T14:06:29.302Z,9.17
2022-11-19T14:09:18.224Z,9.03
2022-11-19T14:12:08.882Z,9.00
2022-11-19T14:15:18.160Z,8.77
2022-11-19T14:18:13.571Z,9.23
2022-11-19T14:21:00.821Z,9.17
2022-11-19T14:24:03.991Z,8.40
2022-11-19T14:27:08.773Z,9.47
2022-11-19T14:29:58.316Z,9.27
2022-11-19T14:32:41.583Z,9.43
2022-11-19T14:35:34.930Z,9.20
2022-11-19T14:38:29.216Z,10.40
2022-11-19T14:41:29.768Z,8.73
2022-11-19T14:44:12.897Z,9.83
2022-11-19T14:46:44.255Z,9.47
2022-11-19T14:49:24.595Z,8.80
2022-11-19T14:51:55.216Z,9.80
2022-11-19T14:54:32.220Z,9.33
2022-11-19T14:57:25.104Z,8.40
2022-11-19T14:59:56.498Z,9.37
2022-11-19T15:02:30.524Z,9.17
2022-11-19T15:05:04.139Z,9.20
2022-11-19T15:07:39.821Z,9.77
2022-11-19T15:10:46.178Z,8.00
2022-11-19T15:13:19.675Z,8.93
2022-11-19T15:15:50.325Z,8.83
2022-11-19T15:18:55.458Z,9.17
2022-11-19T15:22:12.570Z,8.73
2022-11-19T15:25:03.539Z,8.30
2022-11-19T15:27:42.646Z,8.57
2022-11-19T15:30:17.447Z,9.27
2022-11-19T15:33:12.338Z,8.83
2022-11-19T15:36:05.900Z,9.97
2022-11-19T15:38:39.515Z,9.40
2022-11-19T15:41:08.506Z,9.97
2022-11-19T15:43:40.970Z,9.13
2022-11-19T15:46:13.161Z,8.87
2022-11-19T15:48:52.288Z,10.10
2022-11-19T15:51:20.874Z,8.97
2022-11-19T15:54:03.717Z,9.47
2022-11-19T15:56:35.379Z,9.20
2022-11-19T15:59:04.524Z,9.00
2022-11-19T16:01:34.318Z,8.97
2022-11-19T16:04:07.450Z,8.90
2022-11-19T16:06:36.949Z,9.17
2022-11-19T16:09:05.925Z,8.13
2022-11-19T16:11:54.906Z,9.00
2022-11-19T16:14:41.704Z,8.40
2022-11-19T16:17:31.726Z,8.90
2022-11-19T16:20:07.262Z,9.10
2022-11-19T16:22:38.674Z,8.43
2022-11-19T16:25:12.777Z,9.47
2022-11-19T16:27:42.754Z,8.97
2022-11-19T16:30:19.206Z,10.37
2022-11-19T16:32:47.155Z,10.13
2022-11-19T16:35:24.552Z,10.77
2022-11-19T16:37:53.418Z,9.87
2022-11-19T16:40:23.535Z,9.73
2022-11-19T16:42:53.806Z,9.47
2022-11-19T16:45:23.874Z,10.27
2022-11-19T16:47:54.019Z,10.27
2022-11-19T16:50:32.642Z,10.77
2022-11-19T16:53:01.608Z,11.27
2022-11-19T16:55:43.631Z,10.17
2022-11-19T16:58:17.519Z,10.93
2022-11-19T17:00:50.891Z,10.30
2022-11-19T17:03:29.980Z,12.27
2022-11-19T17:05:59.065Z,11.10
2022-11-19T17:08:29.753Z,9.57
2022-11-19T17:11:37.491Z,9.70
2022-11-19T17:14:19.129Z,10.40
2022-11-19T17:16:48.569Z,10.33
2022-11-19T17:19:28.814Z,9.23
2022-11-19T17:22:01.165Z,9.50
2022-11-19T17:24:32.834Z,10.50
2022-11-19T17:27:02.007Z,9.90
2022-11-19T17:29:29.673Z,10.47
2022-11-19T17:31:57.535Z,10.77
2022-11-19T17:34:31.891Z,10.93
2022-11-19T17:37:00.179Z,10.43
2022-11-19T17:39:27.749Z,9.53
2022-11-19T17:42:13.826Z,9.57
2022-11-19T17:44:42.833Z,11.27
2022-11-19T17:47:21.865Z,11.40
2022-11-19T17:49:50.279Z,11.93
2022-11-19T17:52:22.708Z,13.53
2022-11-19T17:54:50.819Z,12.43
2022-11-19T17:57:18.455Z,11.90
2022-11-19T17:59:47.390Z,12.10
2022-11-19T18:02:16.691Z,9.97
2022-11-19T18:04:44.942Z,10.60
2022-11-19T18:07:13.368Z,10.03
2022-11-19T18:09:41.683Z,10.17
2022-11-19T18:12:15.003Z,10.43
2022-11-19T18:14:42.871Z,12.77
2022-11-19T18:17:13.338Z,17.37
2022-11-19T18:19:41.148Z,35.80
2022-11-19T18:22:16.851Z,18.97
2022-11-19T18:24:44.415Z,13.40
2022-11-19T18:27:11.938Z,12.00
2022-11-19T18:29:39.518Z,11.87
2022-11-19T18:32:07.150Z,14.07
2022-11-19T18:34:36.194Z,11.70
2022-11-19T18:37:03.758Z,10.63
2022-11-19T18:39:31.313Z,10.93
2022-11-19T18:41:58.836Z,11.37
2022-11-19T18:44:34.547Z,11.47
2022-11-19T18:47:03.804Z,11.70
2022-11-19T18:49:33.407Z,14.03
2022-11-19T18:52:03.021Z,13.03
2022-11-19T18:54:30.714Z,11.43
2022-11-19T18:56:58.438Z,12.30
2022-11-19T18:59:26.253Z,12.07
2022-11-19T19:01:55.594Z,13.87
2022-11-19T19:04:24.391Z,15.03
2022-11-19T19:06:52.490Z,14.10
2022-11-19T19:09:22.073Z,12.93
2022-11-19T19:12:12.992Z,12.47
2022-11-19T19:14:41.218Z,10.70
2022-11-19T19:17:08.978Z,10.67
2022-11-19T19:19:36.555Z,11.77
2022-11-19T19:22:04.655Z,11.07
2022-11-19T19:24:33.726Z,10.53
2022-11-19T19:27:02.063Z,10.03
2022-11-19T19:29:29.675Z,11.50
2022-11-19T19:31:57.961Z,10.10
2022-11-19T19:34:25.509Z,10.67
2022-11-19T19:36:53.907Z,12.60
2022-11-19T19:39:22.261Z,11.63
2022-11-19T19:41:51.269Z,12.10
2022-11-19T19:44:18.906Z,11.63
2022-11-19T19:46:48.263Z,10.43
2022-11-19T19:49:15.880Z,12.47
2022-11-19T19:51:43.518Z,11.10
2022-11-19T19:54:11.083Z,12.00
2022-11-19T19:56:38.754Z,11.63
2022-11-19T19:59:07.769Z,12.13
2022-11-19T20:01:36.659Z,10.37
2022-11-19T20:04:07.391Z,10.83
2022-11-19T20:06:37.139Z,11.03
2022-11-19T20:09:08.918Z,10.07
2022-11-19T20:11:37.965Z,10.30
2022-11-19T20:14:07.294Z,9.40
2022-11-19T20:16:35.754Z,10.63
2022-11-19T20:19:03.557Z,11.47
2022-11-19T20:21:33.906Z,11.03
2022-11-19T20:24:02.525Z,9.80
2022-11-19T20:26:32.235Z,9.37
2022-11-19T20:29:01.091Z,9.77
2022-11-19T20:31:30.779Z,10.73
2022-11-19T20:33:59.953Z,10.50
2022-11-19T20:36:29.293Z,9.40
2022-11-19T20:38:57.933Z,9.17
2022-11-19T20:41:43.458Z,10.80
2022-11-19T20:44:21.968Z,9.50
2022-11-19T20:46:52.902Z,9.33
2022-11-19T20:49:22.163Z,9.57
2022-11-19T20:51:50.599Z,8.37
2022-11-19T20:54:18.552Z,8.70
2022-11-19T20:56:46.181Z,9.57
2022-11-19T20:59:13.835Z,9.27
2022-11-19T21:01:41.883Z,10.50
2022-11-19T21:04:11.787Z,9.47
2022-11-19T21:06:39.961Z,10.00
2022-11-19T21:09:08.063Z,12.00
2022-11-19T21:11:35.950Z,11.43
2022-11-19T21:14:04.025Z,12.20
2022-11-19T21:16:32.751Z,10.80
2022-11-19T21:19:00.652Z,11.30
2022-11-19T21:21:29.665Z,11.50
2022-11-19T21:23:57.505Z,10.77
2022-11-19T21:26:27.391Z,11.97
2022-11-19T21:28:56.541Z,12.57
2022-11-19T21:31:37.788Z,11.00
2022-11-19T21:34:06.402Z,11.17
2022-11-19T21:36:35.703Z,9.23
2022-11-19T21:39:04.058Z,9.23
2022-11-19T21:41:31.714Z,10.47
2022-11-19T21:43:59.457Z,9.70
2022-11-19T21:46:27.181Z,9.67
2022-11-19T21:48:54.856Z,8.93
2022-11-19T21:51:24.929Z,8.90
2022-11-19T21:53:55.950Z,9.27
2022-11-19T21:56:23.774Z,10.90
2022-11-19T21:58:51.460Z,9.83
2022-11-19T22:01:19.319Z,10.40
2022-11-19T22:03:47.014Z,11.90
2022-11-19T22:06:14.690Z,10.33
2022-11-19T22:08:43.251Z,9.37
2022-11-19T22:11:31.910Z,8.93
2022-11-19T22:14:02.144Z,9.83
2022-11-19T22:16:30.484Z,10.07
2022-11-19T22:18:58.177Z,10.10
2022-11-19T22:21:26.720Z,9.53
2022-11-19T22:23:54.251Z,9.70
2022-11-19T22:26:23.106Z,11.33
2022-11-19T22:28:51.002Z,9.63
2022-11-19T22:31:18.549Z,10.97
2022-11-19T22:33:47.691Z,12.20
2022-11-19T22:36:15.207Z,9.77
2022-11-19T22:38:42.766Z,8.33
2022-11-19T22:41:12.336Z,8.90
2022-11-19T22:43:42.141Z,7.67
2022-11-19T22:46:11.426Z,10.17
2022-11-19T22:48:39.189Z,10.03
2022-11-19T22:51:08.026Z,10.17
2022-11-19T22:53:36.441Z,9.67
2022-11-19T22:56:05.232Z,11.23
2022-11-19T22:58:34.027Z,10.50
2022-11-19T23:01:03.247Z,10.57
2022-11-19T23:03:31.065Z,10.43
2022-11-19T23:05:59.718Z,10.00
2022-11-19T23:08:27.427Z,9.37
2022-11-19T23:10:58.833Z,9.57
2022-11-19T23:13:34.185Z,10.10
2022-11-19T23:16:05.704Z,10.00
2022-11-19T23:18:35.913Z,10.20
2022-11-19T23:21:06.487Z,11.07
2022-11-19T23:23:34.991Z,9.07
2022-11-19T23:26:03.421Z,11.60
2022-11-19T23:28:32.607Z,9.30
2022-11-19T23:31:05.785Z,10.73
2022-11-19T23:33:33.566Z,11.57
2022-11-19T23:36:05.722Z,11.23
2022-11-19T23:38:33.619Z,10.40
2022-11-19T23:41:01.985Z,9.90
2022-11-19T23:43:30.331Z,10.67
2022-11-19T23:46:06.974Z,10.57
2022-11-19T23:48:35.369Z,10.77
2022-11-19T23:51:03.265Z,11.27
2022-11-19T23:53:30.973Z,10.33
2022-11-19T23:55:58.982Z,10.40
2022-11-19T23:58:26.542Z,10.93
